sensor_id;sensor_type;location;lat;lon;timestamp;P1;durP1;ratioP1;P2;durP2;ratioP2
9986;SDS011;5033;46.310;11.214;2023-07-29T00:01:59;1.48;;;1.38;;
9986;SDS011;5033;46.310;11.214;2023-07-29T00:04:26;1.70;;;1.60;;
9986;SDS011;5033;46.310;11.214;2023-07-29T00:06:53;1.70;;;1.60;;
9986;SDS011;5033;46.310;11.214;2023-07-29T00:09:20;2.05;;;1.85;;
9986;SDS011;5033;46.310;11.214;2023-07-29T00:11:47;1.50;;;1.40;;
9986;SDS011;5033;46.310;11.214;2023-07-29T00:14:15;1.63;;;1.52;;
9986;SDS011;5033;46.310;11.214;2023-07-29T00:16:43;1.80;;;1.70;;
9986;SDS011;5033;46.310;11.214;2023-07-29T00:19:10;1.70;;;1.60;;
9986;SDS011;5033;46.310;11.214;2023-07-29T00:21:37;1.63;;;1.50;;
9986;SDS011;5033;46.310;11.214;2023-07-29T00:24:05;1.73;;;1.63;;
9986;SDS011;5033;46.310;11.214;2023-07-29T00:26:32;1.30;;;1.20;;
9986;SDS011;5033;46.310;11.214;2023-07-29T00:28:59;1.98;;;1.35;;
9986;SDS011;5033;46.310;11.214;2023-07-29T00:31:26;1.60;;;1.50;;
9986;SDS011;5033;46.310;11.214;2023-07-29T00:33:54;1.40;;;1.30;;
9986;SDS011;5033;46.310;11.214;2023-07-29T00:36:23;1.40;;;1.30;;
9986;SDS011;5033;46.310;11.214;2023-07-29T00:38:50;1.20;;;1.20;;
9986;SDS011;5033;46.310;11.214;2023-07-29T00:41:18;1.30;;;1.30;;
9986;SDS011;5033;46.310;11.214;2023-07-29T00:43:45;1.38;;;1.27;;
9986;SDS011;5033;46.310;11.214;2023-07-29T00:46:12;1.60;;;1.50;;
9986;SDS011;5033;46.310;11.214;2023-07-29T00:48:39;1.40;;;1.30;;
9986;SDS011;5033;46.310;11.214;2023-07-29T00:51:08;1.50;;;1.40;;
9986;SDS011;5033;46.310;11.214;2023-07-29T00:53:35;1.30;;;1.20;;
9986;SDS011;5033;46.310;11.214;2023-07-29T00:56:02;1.50;;;1.40;;
9986;SDS011;5033;46.310;11.214;2023-07-29T00:58:29;1.42;;;1.33;;
9986;SDS011;5033;46.310;11.214;2023-07-29T01:00:56;1.60;;;1.40;;
9986;SDS011;5033;46.310;11.214;2023-07-29T01:03:23;1.38;;;1.23;;
9986;SDS011;5033;46.310;11.214;2023-07-29T01:05:56;1.30;;;1.20;;
9986;SDS011;5033;46.310;11.214;2023-07-29T01:08:36;1.48;;;1.38;;
9986;SDS011;5033;46.310;11.214;2023-07-29T01:11:13;1.42;;;1.33;;
9986;SDS011;5033;46.310;11.214;2023-07-29T01:13:56;1.50;;;1.40;;
9986;SDS011;5033;46.310;11.214;2023-07-29T01:16:34;1.45;;;1.35;;
9986;SDS011;5033;46.310;11.214;2023-07-29T01:19:25;1.20;;;1.20;;
9986;SDS011;5033;46.310;11.214;2023-07-29T01:22:13;1.20;;;1.20;;
9986;SDS011;5033;46.310;11.214;2023-07-29T01:24:47;1.70;;;1.60;;
9986;SDS011;5033;46.310;11.214;2023-07-29T01:27:21;1.42;;;1.30;;
9986;SDS011;5033;46.310;11.214;2023-07-29T01:30:14;1.60;;;1.50;;
9986;SDS011;5033;46.310;11.214;2023-07-29T01:32:43;1.08;;;1.08;;
9986;SDS011;5033;46.310;11.214;2023-07-29T01:35:19;1.52;;;1.42;;
9986;SDS011;5033;46.310;11.214;2023-07-29T01:37:51;1.55;;;1.10;;
9986;SDS011;5033;46.310;11.214;2023-07-29T01:40:28;1.30;;;1.20;;
9986;SDS011;5033;46.310;11.214;2023-07-29T01:43:00;1.35;;;1.25;;
9986;SDS011;5033;46.310;11.214;2023-07-29T01:45:50;1.50;;;1.40;;
9986;SDS011;5033;46.310;11.214;2023-07-29T01:48:23;1.40;;;1.30;;
9986;SDS011;5033;46.310;11.214;2023-07-29T01:51:00;1.48;;;1.38;;
9986;SDS011;5033;46.310;11.214;2023-07-29T01:53:27;1.50;;;1.40;;
9986;SDS011;5033;46.310;11.214;2023-07-29T01:55:55;1.45;;;1.30;;
9986;SDS011;5033;46.310;11.214;2023-07-29T01:58:24;1.40;;;1.17;;
9986;SDS011;5033;46.310;11.214;2023-07-29T02:00:54;1.20;;;1.20;;
9986;SDS011;5033;46.310;11.214;2023-07-29T02:03:21;1.30;;;1.20;;
9986;SDS011;5033;46.310;11.214;2023-07-29T02:05:48;1.55;;;1.45;;
9986;SDS011;5033;46.310;11.214;2023-07-29T02:08:15;1.50;;;1.40;;
9986;SDS011;5033;46.310;11.214;2023-07-29T02:10:42;1.40;;;1.30;;
9986;SDS011;5033;46.310;11.214;2023-07-29T02:13:12;1.20;;;1.20;;
9986;SDS011;5033;46.310;11.214;2023-07-29T02:15:39;1.20;;;1.20;;
9986;SDS011;5033;46.310;11.214;2023-07-29T02:18:05;1.50;;;1.40;;
9986;SDS011;5033;46.310;11.214;2023-07-29T02:20:33;1.40;;;1.30;;
9986;SDS011;5033;46.310;11.214;2023-07-29T02:23:00;1.50;;;1.40;;
9986;SDS011;5033;46.310;11.214;2023-07-29T02:25:27;1.58;;;1.48;;
9986;SDS011;5033;46.310;11.214;2023-07-29T02:27:54;1.33;;;1.23;;
9986;SDS011;5033;46.310;11.214;2023-07-29T02:30:23;1.40;;;1.30;;
9986;SDS011;5033;46.310;11.214;2023-07-29T02:32:50;1.30;;;1.20;;
9986;SDS011;5033;46.310;11.214;2023-07-29T02:35:17;1.45;;;1.35;;
9986;SDS011;5033;46.310;11.214;2023-07-29T02:37:44;1.38;;;1.27;;
9986;SDS011;5033;46.310;11.214;2023-07-29T02:40:11;1.38;;;1.27;;
9986;SDS011;5033;46.310;11.214;2023-07-29T02:42:38;1.50;;;1.40;;
9986;SDS011;5033;46.310;11.214;2023-07-29T02:45:05;1.40;;;1.23;;
9986;SDS011;5033;46.310;11.214;2023-07-29T02:47:37;1.63;;;1.52;;
9986;SDS011;5033;46.310;11.214;2023-07-29T02:50:04;1.60;;;1.50;;
9986;SDS011;5033;46.310;11.214;2023-07-29T02:52:32;1.30;;;1.20;;
9986;SDS011;5033;46.310;11.214;2023-07-29T02:54:58;1.40;;;1.30;;
9986;SDS011;5033;46.310;11.214;2023-07-29T02:57:26;1.42;;;1.33;;
9986;SDS011;5033;46.310;11.214;2023-07-29T02:59:53;1.35;;;1.25;;
9986;SDS011;5033;46.310;11.214;2023-07-29T03:02:19;1.45;;;1.35;;
9986;SDS011;5033;46.310;11.214;2023-07-29T03:04:49;1.20;;;1.10;;
9986;SDS011;5033;46.310;11.214;2023-07-29T03:07:16;1.00;;;1.00;;
9986;SDS011;5033;46.310;11.214;2023-07-29T03:09:43;1.23;;;1.15;;
9986;SDS011;5033;46.310;11.214;2023-07-29T03:12:10;1.33;;;1.23;;
9986;SDS011;5033;46.310;11.214;2023-07-29T03:14:37;1.23;;;1.17;;
9986;SDS011;5033;46.310;11.214;2023-07-29T03:17:04;2.20;;;1.40;;
9986;SDS011;5033;46.310;11.214;2023-07-29T03:19:32;2.53;;;1.40;;
9986;SDS011;5033;46.310;11.214;2023-07-29T03:22:00;1.20;;;1.10;;
9986;SDS011;5033;46.310;11.214;2023-07-29T03:24:27;1.50;;;1.40;;
9986;SDS011;5033;46.310;11.214;2023-07-29T03:26:54;1.42;;;1.33;;
9986;SDS011;5033;46.310;11.214;2023-07-29T03:29:21;1.00;;;1.00;;
9986;SDS011;5033;46.310;11.214;2023-07-29T03:31:48;1.40;;;1.30;;
9986;SDS011;5033;46.310;11.214;2023-07-29T03:34:15;1.48;;;1.17;;
9986;SDS011;5033;46.310;11.214;2023-07-29T03:36:42;1.30;;;1.20;;
9986;SDS011;5033;46.310;11.214;2023-07-29T03:39:12;1.30;;;1.20;;
9986;SDS011;5033;46.310;11.214;2023-07-29T03:41:39;1.40;;;1.30;;
9986;SDS011;5033;46.310;11.214;2023-07-29T03:44:06;1.45;;;1.27;;
9986;SDS011;5033;46.310;11.214;2023-07-29T03:46:33;0.90;;;0.90;;
9986;SDS011;5033;46.310;11.214;2023-07-29T03:49:00;1.27;;;1.17;;
9986;SDS011;5033;46.310;11.214;2023-07-29T03:51:28;1.35;;;1.30;;
9986;SDS011;5033;46.310;11.214;2023-07-29T03:53:55;1.75;;;1.48;;
9986;SDS011;5033;46.310;11.214;2023-07-29T03:56:23;1.40;;;1.30;;
9986;SDS011;5033;46.310;11.214;2023-07-29T03:58:50;1.30;;;1.30;;
9986;SDS011;5033;46.310;11.214;2023-07-29T04:01:18;1.40;;;1.30;;
9986;SDS011;5033;46.310;11.214;2023-07-29T04:03:45;1.30;;;1.20;;
9986;SDS011;5033;46.310;11.214;2023-07-29T04:06:13;1.58;;;1.48;;
9986;SDS011;5033;46.310;11.214;2023-07-29T04:08:40;1.60;;;1.50;;
9986;SDS011;5033;46.310;11.214;2023-07-29T04:11:07;1.90;;;1.23;;
9986;SDS011;5033;46.310;11.214;2023-07-29T04:13:36;1.65;;;1.20;;
9986;SDS011;5033;46.310;11.214;2023-07-29T04:16:03;1.55;;;1.30;;
9986;SDS011;5033;46.310;11.214;2023-07-29T04:18:30;1.67;;;1.50;;
9986;SDS011;5033;46.310;11.214;2023-07-29T04:20:57;1.40;;;1.30;;
9986;SDS011;5033;46.310;11.214;2023-07-29T04:23:25;1.40;;;1.30;;
9986;SDS011;5033;46.310;11.214;2023-07-29T04:25:52;1.60;;;1.40;;
9986;SDS011;5033;46.310;11.214;2023-07-29T04:28:19;1.30;;;1.20;;
9986;SDS011;5033;46.310;11.214;2023-07-29T04:30:48;1.50;;;1.40;;
9986;SDS011;5033;46.310;11.214;2023-07-29T04:33:15;1.38;;;1.15;;
9986;SDS011;5033;46.310;11.214;2023-07-29T04:35:42;1.40;;;1.30;;
9986;SDS011;5033;46.310;11.214;2023-07-29T04:38:09;1.30;;;1.20;;
9986;SDS011;5033;46.310;11.214;2023-07-29T04:40:36;1.10;;;1.00;;
9986;SDS011;5033;46.310;11.214;2023-07-29T04:43:03;1.15;;;1.15;;
9986;SDS011;5033;46.310;11.214;2023-07-29T04:45:30;1.40;;;1.30;;
9986;SDS011;5033;46.310;11.214;2023-07-29T04:47:59;1.35;;;1.25;;
9986;SDS011;5033;46.310;11.214;2023-07-29T04:50:26;1.50;;;1.40;;
9986;SDS011;5033;46.310;11.214;2023-07-29T04:52:52;1.15;;;1.15;;
9986;SDS011;5033;46.310;11.214;2023-07-29T04:55:19;1.38;;;1.27;;
9986;SDS011;5033;46.310;11.214;2023-07-29T04:57:46;1.33;;;1.23;;
9986;SDS011;5033;46.310;11.214;2023-07-29T05:00:13;1.40;;;1.30;;
9986;SDS011;5033;46.310;11.214;2023-07-29T05:02:41;1.45;;;1.35;;
9986;SDS011;5033;46.310;11.214;2023-07-29T05:05:09;1.38;;;1.27;;
9986;SDS011;5033;46.310;11.214;2023-07-29T05:07:36;1.52;;;1.27;;
9986;SDS011;5033;46.310;11.214;2023-07-29T05:10:03;1.50;;;1.40;;
9986;SDS011;5033;46.310;11.214;2023-07-29T05:12:31;1.40;;;1.30;;
9986;SDS011;5033;46.310;11.214;2023-07-29T05:14:58;2.83;;;1.60;;
9986;SDS011;5033;46.310;11.214;2023-07-29T05:17:26;1.20;;;1.10;;
9986;SDS011;5033;46.310;11.214;2023-07-29T05:19:53;1.40;;;1.30;;
9986;SDS011;5033;46.310;11.214;2023-07-29T05:22:22;1.42;;;1.33;;
9986;SDS011;5033;46.310;11.214;2023-07-29T05:24:50;1.40;;;1.30;;
9986;SDS011;5033;46.310;11.214;2023-07-29T05:27:17;1.65;;;1.55;;
9986;SDS011;5033;46.310;11.214;2023-07-29T05:29:44;2.50;;;1.42;;
9986;SDS011;5033;46.310;11.214;2023-07-29T05:32:10;1.50;;;1.40;;
9986;SDS011;5033;46.310;11.214;2023-07-29T05:34:38;1.60;;;1.50;;
9986;SDS011;5033;46.310;11.214;2023-07-29T05:37:05;1.58;;;1.48;;
9986;SDS011;5033;46.310;11.214;2023-07-29T05:39:34;1.40;;;1.30;;
9986;SDS011;5033;46.310;11.214;2023-07-29T05:42:02;1.60;;;1.50;;
9986;SDS011;5033;46.310;11.214;2023-07-29T05:44:30;1.95;;;1.58;;
9986;SDS011;5033;46.310;11.214;2023-07-29T05:46:57;1.40;;;1.30;;
9986;SDS011;5033;46.310;11.214;2023-07-29T05:49:25;2.67;;;1.40;;
9986;SDS011;5033;46.310;11.214;2023-07-29T05:51:52;1.60;;;1.50;;
9986;SDS011;5033;46.310;11.214;2023-07-29T05:54:19;2.40;;;1.48;;
9986;SDS011;5033;46.310;11.214;2023-07-29T05:56:47;1.40;;;1.30;;
9986;SDS011;5033;46.310;11.214;2023-07-29T05:59:14;1.50;;;1.40;;
9986;SDS011;5033;46.310;11.214;2023-07-29T06:01:41;1.38;;;1.20;;
9986;SDS011;5033;46.310;11.214;2023-07-29T06:04:08;1.50;;;1.40;;
9986;SDS011;5033;46.310;11.214;2023-07-29T06:06:35;1.70;;;1.60;;
9986;SDS011;5033;46.310;11.214;2023-07-29T06:09:02;1.80;;;1.70;;
9986;SDS011;5033;46.310;11.214;2023-07-29T06:11:29;1.55;;;1.45;;
9986;SDS011;5033;46.310;11.214;2023-07-29T06:13:58;1.50;;;1.35;;
9986;SDS011;5033;46.310;11.214;2023-07-29T06:16:25;1.48;;;1.38;;
9986;SDS011;5033;46.310;11.214;2023-07-29T06:18:51;1.52;;;1.30;;
9986;SDS011;5033;46.310;11.214;2023-07-29T06:21:19;2.08;;;1.50;;
9986;SDS011;5033;46.310;11.214;2023-07-29T06:23:46;2.63;;;1.67;;
9986;SDS011;5033;46.310;11.214;2023-07-29T06:26:13;1.52;;;1.42;;
9986;SDS011;5033;46.310;11.214;2023-07-29T06:28:41;1.70;;;1.55;;
9986;SDS011;5033;46.310;11.214;2023-07-29T06:31:09;1.60;;;1.48;;
9986;SDS011;5033;46.310;11.214;2023-07-29T06:33:36;1.50;;;1.40;;
9986;SDS011;5033;46.310;11.214;2023-07-29T06:36:03;1.30;;;1.20;;
9986;SDS011;5033;46.310;11.214;2023-07-29T06:38:31;1.70;;;1.60;;
9986;SDS011;5033;46.310;11.214;2023-07-29T06:40:58;2.45;;;1.80;;
9986;SDS011;5033;46.310;11.214;2023-07-29T06:43:25;2.05;;;1.30;;
9986;SDS011;5033;46.310;11.214;2023-07-29T06:45:52;1.48;;;1.35;;
9986;SDS011;5033;46.310;11.214;2023-07-29T06:48:21;1.67;;;1.58;;
9986;SDS011;5033;46.310;11.214;2023-07-29T06:50:48;1.73;;;1.63;;
9986;SDS011;5033;46.310;11.214;2023-07-29T06:53:16;1.77;;;1.67;;
9986;SDS011;5033;46.310;11.214;2023-07-29T06:55:43;2.13;;;1.40;;
9986;SDS011;5033;46.310;11.214;2023-07-29T06:58:10;2.92;;;1.60;;
9986;SDS011;5033;46.310;11.214;2023-07-29T07:00:37;1.60;;;1.50;;
9986;SDS011;5033;46.310;11.214;2023-07-29T07:03:04;2.00;;;1.55;;
9986;SDS011;5033;46.310;11.214;2023-07-29T07:05:33;1.70;;;1.60;;
9986;SDS011;5033;46.310;11.214;2023-07-29T07:08:00;1.65;;;1.40;;
9986;SDS011;5033;46.310;11.214;2023-07-29T07:10:27;2.35;;;1.58;;
9986;SDS011;5033;46.310;11.214;2023-07-29T07:12:55;2.22;;;1.60;;
9986;SDS011;5033;46.310;11.214;2023-07-29T07:15:21;1.75;;;1.45;;
9986;SDS011;5033;46.310;11.214;2023-07-29T07:17:48;1.63;;;1.50;;
9986;SDS011;5033;46.310;11.214;2023-07-29T07:20:17;1.70;;;1.60;;
9986;SDS011;5033;46.310;11.214;2023-07-29T07:22:45;1.80;;;1.60;;
9986;SDS011;5033;46.310;11.214;2023-07-29T07:25:13;1.48;;;1.38;;
9986;SDS011;5033;46.310;11.214;2023-07-29T07:27:40;1.55;;;1.45;;
9986;SDS011;5033;46.310;11.214;2023-07-29T07:30:07;1.60;;;1.50;;
9986;SDS011;5033;46.310;11.214;2023-07-29T07:32:35;1.42;;;1.33;;
9986;SDS011;5033;46.310;11.214;2023-07-29T07:35:03;1.80;;;1.40;;
9986;SDS011;5033;46.310;11.214;2023-07-29T07:37:30;4.30;;;1.60;;
9986;SDS011;5033;46.310;11.214;2023-07-29T07:39:59;1.70;;;1.52;;
9986;SDS011;5033;46.310;11.214;2023-07-29T07:42:26;1.50;;;1.40;;
9986;SDS011;5033;46.310;11.214;2023-07-29T07:44:53;2.42;;;1.63;;
9986;SDS011;5033;46.310;11.214;2023-07-29T07:47:20;1.55;;;1.40;;
9986;SDS011;5033;46.310;11.214;2023-07-29T07:49:47;1.60;;;1.50;;
9986;SDS011;5033;46.310;11.214;2023-07-29T07:52:15;1.50;;;1.40;;
9986;SDS011;5033;46.310;11.214;2023-07-29T07:54:42;1.60;;;1.50;;
9986;SDS011;5033;46.310;11.214;2023-07-29T07:57:11;1.80;;;1.30;;
9986;SDS011;5033;46.310;11.214;2023-07-29T07:59:37;1.77;;;1.45;;
9986;SDS011;5033;46.310;11.214;2023-07-29T08:02:05;1.60;;;1.50;;
9986;SDS011;5033;46.310;11.214;2023-07-29T08:04:32;2.00;;;1.55;;
9986;SDS011;5033;46.310;11.214;2023-07-29T08:06:59;1.65;;;1.55;;
9986;SDS011;5033;46.310;11.214;2023-07-29T08:09:26;2.42;;;1.50;;
9986;SDS011;5033;46.310;11.214;2023-07-29T08:11:53;2.55;;;1.48;;
9986;SDS011;5033;46.310;11.214;2023-07-29T08:14:22;1.85;;;1.50;;
9986;SDS011;5033;46.310;11.214;2023-07-29T08:16:49;1.77;;;1.67;;
9986;SDS011;5033;46.310;11.214;2023-07-29T08:19:16;1.60;;;1.50;;
9986;SDS011;5033;46.310;11.214;2023-07-29T08:21:43;3.75;;;1.42;;
9986;SDS011;5033;46.310;11.214;2023-07-29T08:24:10;1.50;;;1.40;;
9986;SDS011;5033;46.310;11.214;2023-07-29T08:26:37;1.42;;;1.25;;
9986;SDS011;5033;46.310;11.214;2023-07-29T08:29:04;1.50;;;1.40;;
9986;SDS011;5033;46.310;11.214;2023-07-29T08:31:32;1.67;;;1.58;;
9986;SDS011;5033;46.310;11.214;2023-07-29T08:33:59;1.60;;;1.42;;
9986;SDS011;5033;46.310;11.214;2023-07-29T08:36:26;1.70;;;1.60;;
9986;SDS011;5033;46.310;11.214;2023-07-29T08:38:53;1.60;;;1.40;;
9986;SDS011;5033;46.310;11.214;2023-07-29T08:41:21;2.30;;;1.40;;
9986;SDS011;5033;46.310;11.214;2023-07-29T08:43:56;1.50;;;1.40;;
9986;SDS011;5033;46.310;11.214;2023-07-29T08:46:28;1.42;;;1.33;;
9986;SDS011;5033;46.310;11.214;2023-07-29T08:48:56;1.42;;;1.33;;
9986;SDS011;5033;46.310;11.214;2023-07-29T08:51:26;1.23;;;1.13;;
9986;SDS011;5033;46.310;11.214;2023-07-29T08:53:54;1.52;;;1.42;;
9986;SDS011;5033;46.310;11.214;2023-07-29T08:56:21;1.77;;;1.65;;
9986;SDS011;5033;46.310;11.214;2023-07-29T08:58:49;1.80;;;1.52;;
9986;SDS011;5033;46.310;11.214;2023-07-29T09:01:16;1.83;;;1.50;;
9986;SDS011;5033;46.310;11.214;2023-07-29T09:03:43;1.60;;;1.50;;
9986;SDS011;5033;46.310;11.214;2023-07-29T09:06:12;1.50;;;1.40;;
9986;SDS011;5033;46.310;11.214;2023-07-29T09:08:40;1.95;;;1.40;;
9986;SDS011;5033;46.310;11.214;2023-07-29T09:11:08;1.73;;;1.60;;
9986;SDS011;5033;46.310;11.214;2023-07-29T09:13:35;2.08;;;1.67;;
9986;SDS011;5033;46.310;11.214;2023-07-29T09:16:02;1.40;;;1.30;;
9986;SDS011;5033;46.310;11.214;2023-07-29T09:18:30;1.30;;;1.20;;
9986;SDS011;5033;46.310;11.214;2023-07-29T09:20:58;2.33;;;1.40;;
9986;SDS011;5033;46.310;11.214;2023-07-29T09:23:28;1.60;;;1.50;;
9986;SDS011;5033;46.310;11.214;2023-07-29T09:26:00;2.03;;;1.80;;
9986;SDS011;5033;46.310;11.214;2023-07-29T09:28:28;1.77;;;1.65;;
9986;SDS011;5033;46.310;11.214;2023-07-29T09:31:00;1.58;;;1.48;;
9986;SDS011;5033;46.310;11.214;2023-07-29T09:33:27;1.45;;;1.35;;
9986;SDS011;5033;46.310;11.214;2023-07-29T09:35:56;1.63;;;1.52;;
9986;SDS011;5033;46.310;11.214;2023-07-29T09:38:26;1.70;;;1.52;;
9986;SDS011;5033;46.310;11.214;2023-07-29T09:40:55;1.50;;;1.40;;
9986;SDS011;5033;46.310;11.214;2023-07-29T09:43:25;1.60;;;1.50;;
9986;SDS011;5033;46.310;11.214;2023-07-29T09:45:55;4.10;;;1.55;;
9986;SDS011;5033;46.310;11.214;2023-07-29T09:48:25;1.60;;;1.50;;
9986;SDS011;5033;46.310;11.214;2023-07-29T09:50:53;1.33;;;1.23;;
9986;SDS011;5033;46.310;11.214;2023-07-29T09:53:21;1.88;;;1.45;;
9986;SDS011;5033;46.310;11.214;2023-07-29T09:55:49;1.40;;;1.30;;
9986;SDS011;5033;46.310;11.214;2023-07-29T09:58:19;1.48;;;1.30;;
9986;SDS011;5033;46.310;11.214;2023-07-29T10:00:52;1.42;;;1.30;;
9986;SDS011;5033;46.310;11.214;2023-07-29T10:03:20;1.50;;;1.40;;
9986;SDS011;5033;46.310;11.214;2023-07-29T10:05:47;1.60;;;1.50;;
9986;SDS011;5033;46.310;11.214;2023-07-29T10:08:15;1.50;;;1.40;;
9986;SDS011;5033;46.310;11.214;2023-07-29T10:10:44;1.73;;;1.30;;
9986;SDS011;5033;46.310;11.214;2023-07-29T10:13:13;1.30;;;1.20;;
9986;SDS011;5033;46.310;11.214;2023-07-29T10:15:41;1.33;;;1.23;;
9986;SDS011;5033;46.310;11.214;2023-07-29T10:18:10;2.08;;;1.63;;
9986;SDS011;5033;46.310;11.214;2023-07-29T10:20:37;1.10;;;1.10;;
9986;SDS011;5033;46.310;11.214;2023-07-29T10:23:06;1.20;;;1.10;;
9986;SDS011;5033;46.310;11.214;2023-07-29T10:25:37;1.88;;;1.33;;
9986;SDS011;5033;46.310;11.214;2023-07-29T10:28:07;1.60;;;1.50;;
9986;SDS011;5033;46.310;11.214;2023-07-29T10:30:35;1.30;;;1.20;;
9986;SDS011;5033;46.310;11.214;2023-07-29T10:33:03;1.60;;;1.50;;
9986;SDS011;5033;46.310;11.214;2023-07-29T10:35:31;1.25;;;1.17;;
9986;SDS011;5033;46.310;11.214;2023-07-29T10:38:01;1.45;;;1.35;;
9986;SDS011;5033;46.310;11.214;2023-07-29T10:40:43;1.10;;;1.10;;
9986;SDS011;5033;46.310;11.214;2023-07-29T10:43:11;1.70;;;1.60;;
9986;SDS011;5033;46.310;11.214;2023-07-29T10:45:41;1.27;;;1.17;;
9986;SDS011;5033;46.310;11.214;2023-07-29T10:48:10;2.45;;;1.20;;
9986;SDS011;5033;46.310;11.214;2023-07-29T10:50:38;2.35;;;1.13;;
9986;SDS011;5033;46.310;11.214;2023-07-29T10:53:06;0.95;;;0.95;;
9986;SDS011;5033;46.310;11.214;2023-07-29T10:55:33;3.38;;;2.38;;
9986;SDS011;5033;46.310;11.214;2023-07-29T10:58:06;3.55;;;2.60;;
9986;SDS011;5033;46.310;11.214;2023-07-29T11:00:35;2.83;;;2.30;;
9986;SDS011;5033;46.310;11.214;2023-07-29T11:03:05;2.13;;;1.90;;
9986;SDS011;5033;46.310;11.214;2023-07-29T11:05:46;2.15;;;1.83;;
9986;SDS011;5033;46.310;11.214;2023-07-29T11:08:18;2.17;;;1.77;;
9986;SDS011;5033;46.310;11.214;2023-07-29T11:11:03;2.13;;;1.60;;
9986;SDS011;5033;46.310;11.214;2023-07-29T11:13:32;2.35;;;1.50;;
9986;SDS011;5033;46.310;11.214;2023-07-29T11:16:01;1.65;;;1.52;;
9986;SDS011;5033;46.310;11.214;2023-07-29T11:18:30;2.55;;;1.50;;
9986;SDS011;5033;46.310;11.214;2023-07-29T11:21:00;1.55;;;1.45;;
9986;SDS011;5033;46.310;11.214;2023-07-29T11:23:29;1.50;;;1.40;;
9986;SDS011;5033;46.310;11.214;2023-07-29T11:25:57;1.42;;;1.33;;
9986;SDS011;5033;46.310;11.214;2023-07-29T11:28:24;2.92;;;1.65;;
9986;SDS011;5033;46.310;11.214;2023-07-29T11:30:52;1.50;;;1.40;;
9986;SDS011;5033;46.310;11.214;2023-07-29T11:33:20;1.63;;;1.42;;
9986;SDS011;5033;46.310;11.214;2023-07-29T11:35:51;1.48;;;1.38;;
9986;SDS011;5033;46.310;11.214;2023-07-29T11:38:19;1.50;;;1.40;;
9986;SDS011;5033;46.310;11.214;2023-07-29T11:40:54;1.60;;;1.50;;
9986;SDS011;5033;46.310;11.214;2023-07-29T11:43:26;1.85;;;1.67;;
9986;SDS011;5033;46.310;11.214;2023-07-29T11:45:53;1.65;;;1.50;;
9986;SDS011;5033;46.310;11.214;2023-07-29T11:48:27;1.60;;;1.50;;
9986;SDS011;5033;46.310;11.214;2023-07-29T11:50:56;1.65;;;1.55;;
9986;SDS011;5033;46.310;11.214;2023-07-29T11:53:25;1.70;;;1.60;;
9986;SDS011;5033;46.310;11.214;2023-07-29T11:55:54;1.80;;;1.70;;
9986;SDS011;5033;46.310;11.214;2023-07-29T11:58:21;2.10;;;1.73;;
9986;SDS011;5033;46.310;11.214;2023-07-29T12:00:48;2.30;;;1.73;;
9986;SDS011;5033;46.310;11.214;2023-07-29T12:03:16;1.75;;;1.60;;
9986;SDS011;5033;46.310;11.214;2023-07-29T12:05:43;3.03;;;2.05;;
9986;SDS011;5033;46.310;11.214;2023-07-29T12:08:12;1.98;;;1.50;;
9986;SDS011;5033;46.310;11.214;2023-07-29T12:10:40;2.75;;;2.28;;
9986;SDS011;5033;46.310;11.214;2023-07-29T12:13:07;2.38;;;2.13;;
9986;SDS011;5033;46.310;11.214;2023-07-29T12:15:35;2.10;;;2.00;;
9986;SDS011;5033;46.310;11.214;2023-07-29T12:18:05;3.17;;;2.42;;
9986;SDS011;5033;46.310;11.214;2023-07-29T12:20:32;2.78;;;2.08;;
9986;SDS011;5033;46.310;11.214;2023-07-29T12:23:00;2.97;;;2.25;;
9986;SDS011;5033;46.310;11.214;2023-07-29T12:25:29;3.05;;;2.63;;
9986;SDS011;5033;46.310;11.214;2023-07-29T12:27:56;2.72;;;2.53;;
9986;SDS011;5033;46.310;11.214;2023-07-29T12:30:28;2.67;;;2.47;;
9986;SDS011;5033;46.310;11.214;2023-07-29T12:32:55;2.95;;;2.63;;
9986;SDS011;5033;46.310;11.214;2023-07-29T12:35:22;2.47;;;2.28;;
9986;SDS011;5033;46.310;11.214;2023-07-29T12:37:57;2.97;;;2.30;;
9986;SDS011;5033;46.310;11.214;2023-07-29T12:40:25;3.08;;;2.70;;
9986;SDS011;5033;46.310;11.214;2023-07-29T12:42:54;2.92;;;2.72;;
9986;SDS011;5033;46.310;11.214;2023-07-29T12:45:21;4.30;;;3.08;;
9986;SDS011;5033;46.310;11.214;2023-07-29T12:47:51;2.95;;;2.55;;
9986;SDS011;5033;46.310;11.214;2023-07-29T12:50:19;4.45;;;2.72;;
9986;SDS011;5033;46.310;11.214;2023-07-29T12:52:46;2.85;;;2.60;;
9986;SDS011;5033;46.310;11.214;2023-07-29T12:55:13;2.97;;;2.63;;
9986;SDS011;5033;46.310;11.214;2023-07-29T12:57:41;3.60;;;2.80;;
9986;SDS011;5033;46.310;11.214;2023-07-29T13:00:11;3.83;;;2.80;;
9986;SDS011;5033;46.310;11.214;2023-07-29T13:02:39;3.45;;;2.90;;
9986;SDS011;5033;46.310;11.214;2023-07-29T13:05:08;3.70;;;3.00;;
9986;SDS011;5033;46.310;11.214;2023-07-29T13:07:37;3.22;;;2.92;;
9986;SDS011;5033;46.310;11.214;2023-07-29T13:10:04;4.03;;;3.00;;
9986;SDS011;5033;46.310;11.214;2023-07-29T13:12:32;3.25;;;2.90;;
9986;SDS011;5033;46.310;11.214;2023-07-29T13:14:59;3.20;;;2.60;;
9986;SDS011;5033;46.310;11.214;2023-07-29T13:17:28;2.95;;;2.63;;
9986;SDS011;5033;46.310;11.214;2023-07-29T13:19:55;3.42;;;2.70;;
9986;SDS011;5033;46.310;11.214;2023-07-29T13:22:22;2.92;;;2.63;;
9986;SDS011;5033;46.310;11.214;2023-07-29T13:24:49;3.28;;;2.97;;
9986;SDS011;5033;46.310;11.214;2023-07-29T13:27:16;4.40;;;3.28;;
9986;SDS011;5033;46.310;11.214;2023-07-29T13:29:43;3.88;;;3.22;;
9986;SDS011;5033;46.310;11.214;2023-07-29T13:32:11;3.88;;;2.92;;
9986;SDS011;5033;46.310;11.214;2023-07-29T13:34:39;4.22;;;2.90;;
9986;SDS011;5033;46.310;11.214;2023-07-29T13:37:06;5.10;;;2.90;;
9986;SDS011;5033;46.310;11.214;2023-07-29T13:39:33;3.15;;;2.67;;
9986;SDS011;5033;46.310;11.214;2023-07-29T13:42:00;4.45;;;3.20;;
9986;SDS011;5033;46.310;11.214;2023-07-29T13:44:27;4.70;;;3.30;;
9986;SDS011;5033;46.310;11.214;2023-07-29T13:46:55;4.97;;;2.97;;
9986;SDS011;5033;46.310;11.214;2023-07-29T13:49:22;4.25;;;3.40;;
9986;SDS011;5033;46.310;11.214;2023-07-29T13:51:51;3.88;;;3.30;;
9986;SDS011;5033;46.310;11.214;2023-07-29T13:54:18;3.67;;;2.97;;
9986;SDS011;5033;46.310;11.214;2023-07-29T13:56:46;4.10;;;3.50;;
9986;SDS011;5033;46.310;11.214;2023-07-29T13:59:13;4.78;;;3.17;;
9986;SDS011;5033;46.310;11.214;2023-07-29T14:01:40;5.03;;;3.13;;
9986;SDS011;5033;46.310;11.214;2023-07-29T14:04:08;5.45;;;3.20;;
9986;SDS011;5033;46.310;11.214;2023-07-29T14:06:35;6.47;;;3.55;;
9986;SDS011;5033;46.310;11.214;2023-07-29T14:09:03;3.40;;;3.10;;
9986;SDS011;5033;46.310;11.214;2023-07-29T14:11:30;3.72;;;3.40;;
9986;SDS011;5033;46.310;11.214;2023-07-29T14:13:57;3.78;;;3.40;;
9986;SDS011;5033;46.310;11.214;2023-07-29T14:16:24;4.80;;;3.92;;
9986;SDS011;5033;46.310;11.214;2023-07-29T14:18:51;4.50;;;4.10;;
9986;SDS011;5033;46.310;11.214;2023-07-29T14:21:18;4.95;;;3.60;;
9986;SDS011;5033;46.310;11.214;2023-07-29T14:23:45;4.85;;;3.70;;
9986;SDS011;5033;46.310;11.214;2023-07-29T14:26:14;4.28;;;3.88;;
9986;SDS011;5033;46.310;11.214;2023-07-29T14:28:41;6.78;;;3.63;;
9986;SDS011;5033;46.310;11.214;2023-07-29T14:31:08;5.65;;;3.97;;
9986;SDS011;5033;46.310;11.214;2023-07-29T14:33:35;9.35;;;4.18;;
9986;SDS011;5033;46.310;11.214;2023-07-29T14:36:02;8.10;;;3.75;;
9986;SDS011;5033;46.310;11.214;2023-07-29T14:38:30;4.13;;;3.65;;
9986;SDS011;5033;46.310;11.214;2023-07-29T14:40:57;5.70;;;3.75;;
9986;SDS011;5033;46.310;11.214;2023-07-29T14:43:25;8.45;;;4.35;;
9986;SDS011;5033;46.310;11.214;2023-07-29T14:45:52;5.47;;;3.70;;
9986;SDS011;5033;46.310;11.214;2023-07-29T14:48:19;3.83;;;3.47;;
9986;SDS011;5033;46.310;11.214;2023-07-29T14:50:47;4.25;;;3.45;;
9986;SDS011;5033;46.310;11.214;2023-07-29T14:53:14;3.85;;;3.45;;
9986;SDS011;5033;46.310;11.214;2023-07-29T14:55:41;5.75;;;4.00;;
9986;SDS011;5033;46.310;11.214;2023-07-29T14:58:08;4.30;;;3.60;;
9986;SDS011;5033;46.310;11.214;2023-07-29T15:00:36;6.55;;;3.95;;
9986;SDS011;5033;46.310;11.214;2023-07-29T15:03:03;4.10;;;3.70;;
9986;SDS011;5033;46.310;11.214;2023-07-29T15:05:32;3.92;;;3.58;;
9986;SDS011;5033;46.310;11.214;2023-07-29T15:07:59;6.68;;;3.90;;